createdAt,value
2018-01-27T00:01:56.481Z,102488.52
2018-01-27T00:04:27.798Z,102490.75
2018-01-27T00:06:58.199Z,102487.72
2018-01-27T00:09:29.316Z,102483.95
2018-01-27T00:12:00.490Z,102492.34
2018-01-27T00:14:30.812Z,102499.77
2018-01-27T00:17:01.544Z,102509.44
2018-01-27T00:19:31.833Z,102511.81
2018-01-27T00:22:02.158Z,102516.41
2018-01-27T00:24:32.561Z,102517.48
2018-01-27T00:27:02.843Z,102512.13
2018-01-27T00:29:33.186Z,102511.11
2018-01-27T00:32:03.494Z,102517.25
2018-01-27T00:34:35.523Z,102520.28
2018-01-27T00:37:05.816Z,102529.70
2018-01-27T00:39:36.169Z,102545.03
2018-01-27T00:42:06.464Z,102542.88
2018-01-27T00:44:36.881Z,102545.64
2018-01-27T00:47:07.208Z,102548.94
2018-01-27T00:49:37.806Z,102544.36
2018-01-27T00:52:08.164Z,102535.63
2018-01-27T00:54:38.454Z,102539.63
2018-01-27T00:57:08.780Z,102542.23
2018-01-27T00:59:39.143Z,102545.79
2018-01-27T01:02:09.583Z,102548.69
2018-01-27T01:04:40.450Z,102555.84
2018-01-27T01:07:11.361Z,102561.50
2018-01-27T01:09:44.216Z,102564.08
2018-01-27T01:12:14.961Z,102564.11
2018-01-27T01:17:19.980Z,102561.70
2018-01-27T01:19:50.476Z,102550.62
2018-01-27T01:22:20.806Z,102555.63
2018-01-27T01:24:51.561Z,102550.40
2018-01-27T01:27:22.475Z,102542.09
2018-01-27T01:29:52.851Z,102540.62
2018-01-27T01:32:23.398Z,102542.30
2018-01-27T01:34:53.704Z,102532.94
2018-01-27T01:37:24.274Z,102534.56
2018-01-27T01:39:54.636Z,102535.88
2018-01-27T01:42:29.949Z,102537.50
2018-01-27T01:45:00.304Z,102550.55
2018-01-27T01:47:30.604Z,102556.77
2018-01-27T01:50:00.898Z,102555.67
2018-01-27T01:52:31.148Z,102556.88
2018-01-27T01:55:01.397Z,102558.78
2018-01-27T01:57:32.659Z,102572.22
2018-01-27T02:00:02.934Z,102573.11
2018-01-27T02:02:33.206Z,102573.26
2018-01-27T02:05:03.468Z,102579.06
2018-01-27T02:07:34.652Z,102577.24
2018-01-27T02:10:05.832Z,102584.56
2018-01-27T02:12:36.123Z,102584.19
2018-01-27T02:15:06.570Z,102583.75
2018-01-27T02:17:37.435Z,102586.14
2018-01-27T02:20:08.285Z,102597.36
2018-01-27T02:22:39.667Z,102586.55
2018-01-27T02:25:10.652Z,102599.33
2018-01-27T02:27:42.090Z,102605.08
2018-01-27T02:30:12.575Z,102618.53
2018-01-27T02:32:43.798Z,102616.26
2018-01-27T02:35:15.769Z,102609.23
2018-01-27T02:37:46.203Z,102611.67
2018-01-27T02:40:16.464Z,102597.22
2018-01-27T02:42:46.821Z,102599.78
2018-01-27T02:45:17.092Z,102604.54
2018-01-27T02:47:47.529Z,102602.77
2018-01-27T02:50:17.829Z,102598.44
2018-01-27T02:52:48.135Z,102603.88
2018-01-27T02:55:18.391Z,102598.77
2018-01-27T02:57:48.639Z,102602.02
2018-01-27T03:00:19.056Z,102601.50
2018-01-27T03:02:49.374Z,102606.34
2018-01-27T03:05:19.784Z,102614.11
2018-01-27T03:07:50.113Z,102616.60
2018-01-27T03:10:20.445Z,102609.45
2018-01-27T03:12:50.948Z,102617.81
2018-01-27T03:15:21.293Z,102610.31
2018-01-27T03:17:51.615Z,102614.45
2018-01-27T03:20:23.151Z,102612.79
2018-01-27T03:22:55.886Z,102615.94
2018-01-27T03:25:26.233Z,102620.01
2018-01-27T03:27:57.237Z,102618.22
2018-01-27T03:30:27.782Z,102619.73
2018-01-27T03:32:58.720Z,102619.86
2018-01-27T03:35:30.570Z,102629.22
2018-01-27T03:38:01.857Z,102635.16
2018-01-27T03:40:33.602Z,102642.33
2018-01-27T03:43:03.989Z,102638.39
2018-01-27T03:45:34.407Z,102642.77
2018-01-27T03:48:04.861Z,102633.37
2018-01-27T03:50:35.290Z,102635.41
2018-01-27T03:53:05.620Z,102631.27
2018-01-27T03:55:35.965Z,102619.84
2018-01-27T03:58:06.360Z,102617.60
2018-01-27T04:00:36.671Z,102623.84
2018-01-27T04:03:07.001Z,102620.50
2018-01-27T04:05:37.365Z,102616.16
2018-01-27T04:08:07.689Z,102606.84
2018-01-27T04:10:37.979Z,102610.91
2018-01-27T04:13:08.324Z,102620.30
2018-01-27T04:15:38.645Z,102621.68
2018-01-27T04:18:09.032Z,102624.33
2018-01-27T04:20:39.477Z,102632.52
2018-01-27T04:23:09.855Z,102638.83
2018-01-27T04:25:40.933Z,102646.25
2018-01-27T04:28:11.295Z,102650.45
2018-01-27T04:30:41.557Z,102665.47
2018-01-27T04:33:11.813Z,102656.54
2018-01-27T04:35:42.702Z,102651.22
2018-01-27T04:38:13.186Z,102643.09
2018-01-27T04:40:43.571Z,102647.63
2018-01-27T04:43:15.220Z,102655.14
2018-01-27T04:45:45.538Z,102665.69
2018-01-27T04:48:15.861Z,102674.32
2018-01-27T04:50:46.147Z,102693.98
2018-01-27T04:53:16.431Z,102700.50
2018-01-27T04:55:46.686Z,102690.44
2018-01-27T04:58:17.104Z,102687.27
2018-01-27T05:00:47.458Z,102691.75
2018-01-27T05:03:17.793Z,102699.25
2018-01-27T05:05:48.152Z,102702.08
2018-01-27T05:08:18.476Z,102697.77
2018-01-27T05:10:48.750Z,102694.19
2018-01-27T05:13:19.234Z,102700.62
2018-01-27T05:15:49.573Z,102701.33
2018-01-27T05:18:19.874Z,102695.77
2018-01-27T05:20:50.147Z,102696.52
2018-01-27T05:23:20.478Z,102681.97
2018-01-27T05:25:50.773Z,102687.33
2018-01-27T05:28:21.071Z,102693.66
2018-01-27T05:30:51.413Z,102692.48
2018-01-27T05:33:21.727Z,102695.05
2018-01-27T05:35:52.017Z,102701.20
2018-01-27T05:38:22.343Z,102704.78
2018-01-27T05:40:52.712Z,102702.41
2018-01-27T05:43:23.050Z,102709.16
2018-01-27T05:45:53.333Z,102711.80
2018-01-27T05:48:24.175Z,102705.33
2018-01-27T05:50:54.467Z,102710.53
2018-01-27T05:53:24.804Z,102718.99
2018-01-27T05:55:55.180Z,102709.34
2018-01-27T05:58:25.533Z,102702.50
2018-01-27T06:00:55.793Z,102714.17
2018-01-27T06:03:26.094Z,102717.58
2018-01-27T06:05:56.363Z,102725.37
2018-01-27T06:08:26.811Z,102721.02
2018-01-27T06:10:57.188Z,102721.44
2018-01-27T06:13:27.496Z,102717.91
2018-01-27T06:15:58.875Z,102714.14
2018-01-27T06:18:30.648Z,102726.82
2018-01-27T06:21:02.203Z,102735.61
2018-01-27T06:23:34.199Z,102726.51
2018-01-27T06:26:05.488Z,102727.19
2018-01-27T06:28:36.611Z,102731.00
2018-01-27T06:31:07.960Z,102724.50
2018-01-27T06:33:39.130Z,102728.05
2018-01-27T06:36:10.474Z,102740.64
2018-01-27T06:38:42.257Z,102728.72
2018-01-27T06:41:13.169Z,102714.23
2018-01-27T06:43:44.285Z,102711.02
2018-01-27T06:46:15.252Z,102712.47
2018-01-27T06:48:46.577Z,102716.77
2018-01-27T06:51:17.464Z,102725.97
2018-01-27T06:53:48.903Z,102743.28
2018-01-27T06:56:19.988Z,102743.50
2018-01-27T06:58:51.375Z,102749.22
2018-01-27T07:01:22.539Z,102759.34
2018-01-27T07:03:53.664Z,102751.02
2018-01-27T07:06:25.033Z,102745.06
2018-01-27T07:08:56.159Z,102743.91
2018-01-27T07:11:27.713Z,102737.98
2018-01-27T07:13:59.266Z,102732.39
2018-01-27T07:16:30.332Z,102737.78
2018-01-27T07:19:01.578Z,102736.38
2018-01-27T07:21:32.702Z,102740.36
2018-01-27T07:24:03.998Z,102746.24
2018-01-27T07:26:35.004Z,102757.78
2018-01-27T07:29:06.351Z,102766.25
2018-01-27T07:31:37.598Z,102767.92
2018-01-27T07:34:08.821Z,102768.93
2018-01-27T07:36:39.945Z,102771.02
2018-01-27T07:39:10.964Z,102772.41
2018-01-27T07:41:42.205Z,102778.19
2018-01-27T07:44:13.608Z,102781.95
2018-01-27T07:46:44.740Z,102781.86
2018-01-27T07:49:15.726Z,102785.50
2018-01-27T07:51:46.838Z,102779.05
2018-01-27T07:54:18.581Z,102775.59
2018-01-27T07:56:49.658Z,102774.09
2018-01-27T07:59:21.308Z,102771.92
2018-01-27T08:01:53.409Z,102780.97
2018-01-27T08:04:24.385Z,102771.59
2018-01-27T08:06:55.726Z,102766.30
2018-01-27T08:09:26.693Z,102765.83
2018-01-27T08:11:57.584Z,102767.38
2018-01-27T08:14:28.981Z,102761.28
2018-01-27T08:17:00.062Z,102758.19
2018-01-27T08:19:31.040Z,102762.37
2018-01-27T08:22:02.214Z,102763.48
2018-01-27T08:24:33.530Z,102765.28
2018-01-27T08:27:04.687Z,102766.63
2018-01-27T08:29:36.029Z,102761.72
2018-01-27T08:32:07.376Z,102765.11
2018-01-27T08:34:38.557Z,102761.78
2018-01-27T08:37:10.109Z,102751.97
2018-01-27T08:39:41.273Z,102751.77
2018-01-27T08:42:12.785Z,102748.14
2018-01-27T08:44:43.904Z,102744.50
2018-01-27T08:47:15.149Z,102741.53
2018-01-27T08:49:46.153Z,102748.11
2018-01-27T08:52:17.377Z,102746.02
2018-01-27T08:54:48.909Z,102748.97
2018-01-27T08:57:20.038Z,102743.45
2018-01-27T08:59:51.360Z,102751.78
2018-01-27T09:02:22.315Z,102747.80
2018-01-27T09:04:53.299Z,102732.84
2018-01-27T09:07:24.665Z,102742.63
2018-01-27T09:09:55.811Z,102749.75
2018-01-27T09:12:27.378Z,102748.19
2018-01-27T09:14:58.913Z,102759.17
2018-01-27T09:17:30.259Z,102760.77
2018-01-27T09:20:01.606Z,102759.98
2018-01-27T09:22:33.145Z,102750.61
2018-01-27T09:25:05.561Z,102755.78
2018-01-27T09:27:36.644Z,102757.30
2018-01-27T09:30:08.072Z,102759.04
2018-01-27T09:32:39.540Z,102770.62
2018-01-27T09:35:10.572Z,102768.92
2018-01-27T09:37:42.286Z,102772.92
2018-01-27T09:40:13.384Z,102773.61
2018-01-27T09:42:44.924Z,102775.44
2018-01-27T09:45:16.292Z,102781.61
2018-01-27T09:47:47.519Z,102774.05
2018-01-27T09:50:18.370Z,102779.34
2018-01-27T09:52:49.309Z,102780.48
2018-01-27T09:55:20.301Z,102778.42
2018-01-27T09:57:51.613Z,102775.56
2018-01-27T10:00:22.488Z,102776.04
2018-01-27T10:02:53.451Z,102772.65
2018-01-27T10:05:24.733Z,102764.73
2018-01-27T10:07:56.025Z,102766.77
2018-01-27T10:10:27.565Z,102756.83
2018-01-27T10:12:58.640Z,102754.31
2018-01-27T10:15:29.577Z,102750.32
2018-01-27T10:18:00.516Z,102752.11
2018-01-27T10:20:31.639Z,102745.08
2018-01-27T10:23:03.172Z,102749.07
2018-01-27T10:25:34.972Z,102756.83
2018-01-27T10:28:06.273Z,102772.13
2018-01-27T10:30:37.925Z,102771.83
2018-01-27T10:33:12.728Z,102774.80
2018-01-27T10:35:45.378Z,102771.39
2018-01-27T10:38:17.110Z,102768.87
2018-01-27T10:40:48.670Z,102775.51
2018-01-27T10:43:20.414Z,102778.61
2018-01-27T10:45:51.976Z,102772.89
2018-01-27T10:48:23.321Z,102781.55
2018-01-27T10:50:55.059Z,102785.09
2018-01-27T10:53:26.655Z,102786.34
2018-01-27T10:55:57.983Z,102784.44
2018-01-27T10:58:29.257Z,102783.41
2018-01-27T11:01:00.702Z,102786.42
2018-01-27T11:03:32.227Z,102786.40
2018-01-27T11:06:03.533Z,102781.05
2018-01-27T11:08:34.727Z,102783.52
2018-01-27T11:11:06.428Z,102781.89
2018-01-27T11:13:37.830Z,102781.83
2018-01-27T11:16:09.385Z,102782.31
2018-01-27T11:18:40.492Z,102786.23
2018-01-27T11:21:11.882Z,102785.30
2018-01-27T11:23:43.569Z,102776.48
2018-01-27T11:26:14.988Z,102774.31
2018-01-27T11:28:46.481Z,102770.47
2018-01-27T11:31:17.822Z,102779.55
2018-01-27T11:33:49.188Z,102785.48
2018-01-27T11:36:20.316Z,102781.50
2018-01-27T11:38:51.947Z,102783.52
2018-01-27T11:41:23.035Z,102783.41
2018-01-27T11:43:54.850Z,102785.53
2018-01-27T11:46:26.127Z,102781.05
2018-01-27T11:48:57.477Z,102781.92
2018-01-27T11:51:28.688Z,102777.11
2018-01-27T11:54:00.169Z,102777.98
2018-01-27T11:56:31.770Z,102777.03
2018-01-27T11:59:02.873Z,102771.16
2018-01-27T12:01:34.912Z,102772.76
2018-01-27T12:04:06.396Z,102771.50
2018-01-27T12:06:37.981Z,102757.47
2018-01-27T12:09:09.287Z,102752.97
2018-01-27T12:11:40.431Z,102753.77
2018-01-27T12:14:11.646Z,102754.14
2018-01-27T12:16:42.909Z,102755.81
2018-01-27T12:19:14.097Z,102757.80
2018-01-27T12:21:45.228Z,102756.01
2018-01-27T12:24:16.756Z,102757.66
2018-01-27T12:26:48.103Z,102765.61
2018-01-27T12:29:19.268Z,102754.88
2018-01-27T12:31:51.010Z,102760.00
2018-01-27T12:34:22.088Z,102751.73
2018-01-27T12:36:53.337Z,102761.23
2018-01-27T12:39:24.922Z,102767.42
2018-01-27T12:41:56.192Z,102765.09
2018-01-27T12:44:27.567Z,102766.86
2018-01-27T12:46:58.907Z,102761.26
2018-01-27T12:49:30.063Z,102771.63
2018-01-27T12:52:01.189Z,102768.12
2018-01-27T12:54:32.565Z,102769.56
2018-01-27T12:57:03.903Z,102782.30
2018-01-27T12:59:35.028Z,102783.84
2018-01-27T13:02:06.997Z,102789.86
2018-01-27T13:04:37.828Z,102781.87
2018-01-27T13:07:08.871Z,102775.20
2018-01-27T13:09:40.021Z,102780.45
2018-01-27T13:12:11.363Z,102783.23
2018-01-27T13:14:42.774Z,102778.23
2018-01-27T13:17:14.118Z,102774.69
2018-01-27T13:19:45.220Z,102780.98
2018-01-27T13:22:16.609Z,102790.55
2018-01-27T13:24:47.735Z,102797.13
2018-01-27T13:27:19.243Z,102799.37
2018-01-27T13:29:50.606Z,102800.70
2018-01-27T13:32:21.989Z,102808.53
2018-01-27T13:34:53.522Z,102811.22
2018-01-27T13:37:25.272Z,102818.51
2018-01-27T13:39:56.373Z,102821.82
2018-01-27T13:42:27.590Z,102822.51
2018-01-27T13:44:59.297Z,102815.05
2018-01-27T13:47:30.461Z,102816.61
2018-01-27T13:50:01.629Z,102816.06
2018-01-27T13:52:32.729Z,102820.45
2018-01-27T13:55:03.895Z,102819.56
2018-01-27T13:57:34.780Z,102820.67
2018-01-27T14:00:05.813Z,102821.98
2018-01-27T14:02:36.906Z,102819.75
2018-01-27T14:05:08.044Z,102827.52
2018-01-27T14:07:39.032Z,102835.39
2018-01-27T14:10:10.103Z,102838.91
2018-01-27T14:12:41.708Z,102834.50
2018-01-27T14:15:12.896Z,102846.08
2018-01-27T14:17:44.024Z,102856.63
2018-01-27T14:20:15.163Z,102860.05
2018-01-27T14:22:46.206Z,102866.59
2018-01-27T14:25:17.452Z,102872.25
2018-01-27T14:27:49.004Z,102877.06
2018-01-27T14:30:20.059Z,102885.80
2018-01-27T14:32:50.992Z,102892.41
2018-01-27T14:35:22.008Z,102902.54
2018-01-27T14:37:53.390Z,102896.46
2018-01-27T14:40:24.723Z,102897.77
2018-01-27T14:42:55.793Z,102890.33
2018-01-27T14:45:27.023Z,102890.76
2018-01-27T14:47:58.592Z,102878.08
2018-01-27T14:50:29.944Z,102876.40
2018-01-27T14:53:01.016Z,102875.45
2018-01-27T14:55:32.446Z,102874.08
2018-01-27T14:58:03.613Z,102878.89
2018-01-27T15:00:34.598Z,102881.53
2018-01-27T15:03:06.350Z,102881.20
2018-01-27T15:05:37.620Z,102890.37
2018-01-27T15:08:08.995Z,102890.39
2018-01-27T15:10:40.350Z,102890.83
2018-01-27T15:13:11.487Z,102895.67
2018-01-27T15:15:42.771Z,102893.48
2018-01-27T15:18:14.552Z,102908.35
2018-01-27T15:20:45.601Z,102923.20
2018-01-27T15:23:16.639Z,102926.70
2018-01-27T15:25:47.996Z,102929.77
2018-01-27T15:28:19.041Z,102941.56
2018-01-27T15:30:50.078Z,102936.30
2018-01-27T15:33:21.834Z,102934.61
2018-01-27T15:35:52.904Z,102938.09
2018-01-27T15:38:24.083Z,102935.48
2018-01-27T15:40:55.204Z,102927.16
2018-01-27T15:43:26.478Z,102938.13
2018-01-27T15:45:58.172Z,102929.81
2018-01-27T15:48:29.220Z,102942.05
2018-01-27T15:51:00.394Z,102952.02
2018-01-27T15:53:31.122Z,102941.06
2018-01-27T15:56:02.293Z,102956.38
2018-01-27T15:58:34.512Z,102958.92
2018-01-27T16:01:06.033Z,102958.56
2018-01-27T16:03:37.997Z,102970.42
2018-01-27T16:06:09.320Z,102975.20
2018-01-27T16:08:40.649Z,102975.30
2018-01-27T16:11:12.482Z,102975.83
2018-01-27T16:13:43.376Z,102967.47
2018-01-27T16:16:15.129Z,102972.64
2018-01-27T16:18:46.078Z,102984.23
2018-01-27T16:21:17.487Z,102985.50
2018-01-27T16:23:48.665Z,102979.75
2018-01-27T16:26:20.909Z,102976.22
2018-01-27T16:28:52.102Z,102977.52
2018-01-27T16:31:23.547Z,102984.67
2018-01-27T16:33:55.687Z,102983.34
2018-01-27T16:36:26.609Z,102984.36
2018-01-27T16:38:58.286Z,102986.52
2018-01-27T16:41:29.371Z,102993.23
2018-01-27T16:44:01.400Z,102992.86
2018-01-27T16:46:33.018Z,102988.31
2018-01-27T16:49:04.582Z,102987.56
2018-01-27T16:51:36.903Z,102989.29
2018-01-27T16:54:08.389Z,102990.75
2018-01-27T16:56:39.503Z,102988.52
2018-01-27T16:59:11.065Z,102984.41
2018-01-27T17:01:42.469Z,102972.66
2018-01-27T17:04:13.966Z,102976.66
2018-01-27T17:06:45.236Z,102972.75
2018-01-27T17:09:16.921Z,102973.69
2018-01-27T17:11:48.129Z,102985.20
2018-01-27T17:14:19.599Z,102979.11
2018-01-27T17:16:50.415Z,102984.34
2018-01-27T17:19:21.779Z,102987.11
2018-01-27T17:21:53.105Z,102989.95
2018-01-27T17:24:24.493Z,102990.02
2018-01-27T17:26:55.753Z,102987.75
2018-01-27T17:29:26.544Z,102988.03
2018-01-27T17:31:57.768Z,102994.93
2018-01-27T17:34:29.202Z,102997.34
2018-01-27T17:37:00.813Z,103001.95
2018-01-27T17:39:32.309Z,103006.05
2018-01-27T17:42:04.040Z,103002.83
2018-01-27T17:44:35.271Z,103004.50
2018-01-27T17:47:06.393Z,103004.95
2018-01-27T17:49:37.961Z,103004.48
2018-01-27T17:52:09.269Z,103002.71
2018-01-27T17:54:40.694Z,102995.22
2018-01-27T17:57:11.998Z,102997.34
2018-01-27T17:59:43.823Z,103001.57
2018-01-27T18:02:15.381Z,102996.08
2018-01-27T18:04:46.862Z,103005.31
2018-01-27T18:07:18.000Z,103007.95
2018-01-27T18:09:49.084Z,103004.05
2018-01-27T18:12:20.347Z,103002.53
2018-01-27T18:14:51.468Z,103005.00
2018-01-27T18:17:22.940Z,103000.84
2018-01-27T18:19:54.829Z,102999.11
2018-01-27T18:22:26.250Z,103004.36
2018-01-27T18:24:58.092Z,103005.95
2018-01-27T18:27:29.363Z,103005.23
2018-01-27T18:30:00.683Z,103005.18
2018-01-27T18:32:32.271Z,103001.22
2018-01-27T18:35:03.900Z,103006.22
2018-01-27T18:37:35.596Z,102997.92
2018-01-27T18:40:06.965Z,103005.91
2018-01-27T18:42:38.606Z,103008.58
2018-01-27T18:45:09.874Z,103011.00
2018-01-27T18:47:41.230Z,103012.38
2018-01-27T18:50:13.274Z,102995.94
2018-01-27T18:52:45.185Z,103001.25
2018-01-27T18:55:16.783Z,102996.56
2018-01-27T18:57:48.648Z,102995.13
2018-01-27T19:00:20.580Z,102990.48
2018-01-27T19:02:52.255Z,102988.43
2018-01-27T19:05:24.005Z,102990.22
2018-01-27T19:07:55.482Z,102986.12
2018-01-27T19:10:26.927Z,102983.05
2018-01-27T19:12:58.164Z,102979.89
2018-01-27T19:20:23.916Z,102968.50
2018-01-27T19:22:55.063Z,102965.92
2018-01-27T19:25:26.310Z,102964.66
2018-01-27T19:27:57.740Z,102965.98
2018-01-27T19:30:29.288Z,102958.17
2018-01-27T19:33:00.349Z,102955.55
2018-01-27T19:35:31.745Z,102950.09
2018-01-27T19:38:02.957Z,102952.78
2018-01-27T19:40:34.193Z,102948.87
2018-01-27T19:43:05.171Z,102938.22
2018-01-27T19:45:36.428Z,102933.25
2018-01-27T19:48:07.533Z,102927.59
2018-01-27T19:50:39.064Z,102921.92
2018-01-27T19:53:10.206Z,102924.16
2018-01-27T19:55:41.764Z,102919.61
2018-01-27T19:58:13.020Z,102914.17
2018-01-27T20:00:44.283Z,102910.11
2018-01-27T20:03:15.412Z,102913.03
2018-01-27T20:05:46.899Z,102908.33
2018-01-27T20:08:18.042Z,102905.29
2018-01-27T20:10:49.620Z,102907.58
2018-01-27T20:13:20.837Z,102898.23
2018-01-27T20:15:51.828Z,102897.80
2018-01-27T20:18:23.091Z,102897.24
2018-01-27T20:20:54.579Z,102892.83
2018-01-27T20:23:25.579Z,102891.48
2018-01-27T20:25:56.713Z,102874.99
2018-01-27T20:28:27.006Z,102870.93
2018-01-27T20:30:57.240Z,102869.59
2018-01-27T20:33:27.600Z,102862.41
2018-01-27T20:35:57.855Z,102857.91
2018-01-27T20:38:28.240Z,102845.37
2018-01-27T20:40:58.550Z,102840.88
2018-01-27T20:43:28.973Z,102834.20
2018-01-27T20:45:59.423Z,102824.78
2018-01-27T20:48:29.816Z,102818.94
2018-01-27T20:51:00.125Z,102811.77
2018-01-27T20:53:30.483Z,102809.11
2018-01-27T20:56:01.065Z,102797.67
2018-01-27T20:58:31.320Z,102786.09
2018-01-27T21:14:09.806Z,102773.91
2018-01-27T21:16:40.049Z,102766.34
2018-01-27T21:19:10.294Z,102765.09
2018-01-27T21:21:40.720Z,102766.65
2018-01-27T21:24:13.691Z,102764.30
2018-01-27T21:26:44.066Z,102756.58
2018-01-27T21:29:15.651Z,102743.95
2018-01-27T21:31:46.885Z,102748.78
2018-01-27T21:34:18.285Z,102752.03
2018-01-27T21:36:50.319Z,102744.23
2018-01-27T21:39:21.805Z,102744.87
2018-01-27T21:41:53.497Z,102730.42
2018-01-27T21:44:25.359Z,102739.31
2018-01-27T21:46:56.650Z,102728.86
2018-01-27T21:49:28.100Z,102730.55
2018-01-27T21:51:59.623Z,102730.50
2018-01-27T21:54:31.706Z,102720.48
2018-01-27T21:57:02.829Z,102721.87
2018-01-27T21:59:33.972Z,102719.14
2018-01-27T22:02:05.335Z,102709.52
2018-01-27T22:04:36.873Z,102717.92
2018-01-27T22:07:08.017Z,102718.17
2018-01-27T22:09:38.844Z,102717.91
2018-01-27T22:12:09.804Z,102716.41
2018-01-27T22:14:40.888Z,102714.93
2018-01-27T22:17:11.971Z,102711.86
2018-01-27T22:19:42.899Z,102705.27
2018-01-27T22:22:14.040Z,102702.97
2018-01-27T22:24:45.277Z,102701.55
2018-01-27T22:27:16.366Z,102704.19
2018-01-27T22:29:47.722Z,102702.89
2018-01-27T22:32:18.884Z,102699.52
2018-01-27T22:34:50.267Z,102696.42
2018-01-27T22:37:21.531Z,102694.89
2018-01-27T22:39:53.131Z,102689.84
2018-01-27T22:42:24.010Z,102692.18
2018-01-27T22:44:55.992Z,102690.08
2018-01-27T22:47:27.216Z,102693.55
2018-01-27T22:49:58.515Z,102695.67
2018-01-27T22:52:29.845Z,102683.30
2018-01-27T22:55:00.540Z,102685.77
2018-01-27T22:57:31.777Z,102674.84
2018-01-27T23:00:03.069Z,102679.36
2018-01-27T23:02:36.524Z,102673.91
2018-01-27T23:05:07.675Z,102670.20
2018-01-27T23:07:38.811Z,102665.51
2018-01-27T23:10:10.707Z,102665.41
2018-01-27T23:12:41.880Z,102664.79
2018-01-27T23:15:17.135Z,102665.95
2018-01-27T23:17:48.342Z,102670.63
2018-01-27T23:20:19.355Z,102666.95
2018-01-27T23:23:00.767Z,102660.25
2018-01-27T23:25:32.527Z,102657.59
2018-01-27T23:28:04.957Z,102649.25
2018-01-27T23:30:36.680Z,102661.98
2018-01-27T23:35:44.285Z,102656.70
2018-01-27T23:38:16.330Z,102654.58
2018-01-27T23:40:47.636Z,102658.22
2018-01-27T23:43:19.734Z,102657.89
2018-01-27T23:45:50.640Z,102651.16
2018-01-27T23:48:21.658Z,102661.58
2018-01-27T23:50:52.742Z,102649.39
2018-01-27T23:53:23.640Z,102648.19
2018-01-27T23:55:54.632Z,102644.63
2018-01-27T23:58:25.853Z,102652.36
